sensor_id;sensor_type;location;lat;lon;timestamp;pressure;altitude;pressure_sealevel;temperature;humidity
46448;BME280;32145;50.390;30.778;2023-04-26T00:01:17;99029.97;;;8.00;65.26
46448;BME280;32145;50.390;30.778;2023-04-26T00:04:12;99033.94;;;7.98;65.26
46448;BME280;32145;50.390;30.778;2023-04-26T00:07:07;99043.59;;;7.94;65.38
46448;BME280;32145;50.390;30.778;2023-04-26T00:10:02;99039.16;;;7.88;65.54
46448;BME280;32145;50.390;30.778;2023-04-26T00:12:56;99046.06;;;7.83;65.75
46448;BME280;32145;50.390;30.778;2023-04-26T00:15:50;99038.06;;;7.77;66.24
46448;BME280;32145;50.390;30.778;2023-04-26T00:18:44;99045.84;;;7.73;66.13
46448;BME280;32145;50.390;30.778;2023-04-26T00:21:39;99049.59;;;7.72;66.53
46448;BME280;32145;50.390;30.778;2023-04-26T00:24:34;99047.13;;;7.70;66.89
46448;BME280;32145;50.390;30.778;2023-04-26T00:27:29;99050.91;;;7.69;66.59
46448;BME280;32145;50.390;30.778;2023-04-26T00:30:23;99051.59;;;7.65;66.68
46448;BME280;32145;50.390;30.778;2023-04-26T00:33:17;99052.88;;;7.62;66.59
46448;BME280;32145;50.390;30.778;2023-04-26T00:36:12;99052.88;;;7.62;66.90
46448;BME280;32145;50.390;30.778;2023-04-26T00:39:06;99056.88;;;7.59;67.18
46448;BME280;32145;50.390;30.778;2023-04-26T00:42:02;99044.41;;;7.58;67.42
46448;BME280;32145;50.390;30.778;2023-04-26T00:44:57;99045.72;;;7.56;67.50
46448;BME280;32145;50.390;30.778;2023-04-26T00:47:51;99050.16;;;7.50;67.77
46448;BME280;32145;50.390;30.778;2023-04-26T00:50:46;99054.63;;;7.44;67.84
46448;BME280;32145;50.390;30.778;2023-04-26T00:53:41;99052.38;;;7.41;67.79
46448;BME280;32145;50.390;30.778;2023-04-26T00:56:37;99053.91;;;7.37;67.72
46448;BME280;32145;50.390;30.778;2023-04-26T00:59:33;99056.59;;;7.37;68.31
46448;BME280;32145;50.390;30.778;2023-04-26T01:02:28;99053.31;;;7.35;68.20
46448;BME280;32145;50.390;30.778;2023-04-26T01:05:22;99058.72;;;7.35;68.07
46448;BME280;32145;50.390;30.778;2023-04-26T01:08:16;99059.56;;;7.35;68.04
46448;BME280;32145;50.390;30.778;2023-04-26T01:11:11;99047.09;;;7.34;68.30
46448;BME280;32145;50.390;30.778;2023-04-26T01:14:05;99044.41;;;7.34;68.29
46448;BME280;32145;50.390;30.778;2023-04-26T01:17:01;99045.00;;;7.37;68.33
46448;BME280;32145;50.390;30.778;2023-04-26T01:19:56;99045.00;;;7.37;68.09
46448;BME280;32145;50.390;30.778;2023-04-26T01:22:51;99043.47;;;7.41;68.38
46448;BME280;32145;50.390;30.778;2023-04-26T01:25:46;99039.03;;;7.46;68.03
46448;BME280;32145;50.390;30.778;2023-04-26T01:28:40;99041.63;;;7.53;68.17
46448;BME280;32145;50.390;30.778;2023-04-26T01:31:35;99038.00;;;7.59;67.95
46448;BME280;32145;50.390;30.778;2023-04-26T01:34:29;99031.63;;;7.66;67.66
46448;BME280;32145;50.390;30.778;2023-04-26T01:37:23;99032.34;;;7.73;67.85
46448;BME280;32145;50.390;30.778;2023-04-26T01:40:19;99023.88;;;7.81;67.79
46448;BME280;32145;50.390;30.778;2023-04-26T01:43:15;99028.34;;;7.88;68.14
46448;BME280;32145;50.390;30.778;2023-04-26T01:46:12;99034.41;;;7.95;68.48
46448;BME280;32145;50.390;30.778;2023-04-26T01:49:08;99026.22;;;8.02;68.21
46448;BME280;32145;50.390;30.778;2023-04-26T01:52:04;99036.97;;;8.13;68.38
46448;BME280;32145;50.390;30.778;2023-04-26T01:55:01;99030.97;;;8.23;68.19
46448;BME280;32145;50.390;30.778;2023-04-26T01:57:57;99033.28;;;8.32;68.13
46448;BME280;32145;50.390;30.778;2023-04-26T02:00:51;99027.75;;;8.38;68.16
46448;BME280;32145;50.390;30.778;2023-04-26T02:03:45;99032.78;;;8.47;68.17
46448;BME280;32145;50.390;30.778;2023-04-26T02:06:39;99037.25;;;8.53;68.41
46448;BME280;32145;50.390;30.778;2023-04-26T02:09:34;99029.81;;;8.60;68.23
46448;BME280;32145;50.390;30.778;2023-04-26T02:12:28;99034.38;;;8.72;68.33
46448;BME280;32145;50.390;30.778;2023-04-26T02:15:26;99035.59;;;8.81;68.85
46448;BME280;32145;50.390;30.778;2023-04-26T02:18:22;99024.88;;;8.86;69.35
46448;BME280;32145;50.390;30.778;2023-04-26T02:21:18;99020.38;;;8.92;69.07
46448;BME280;32145;50.390;30.778;2023-04-26T02:24:14;99022.34;;;8.97;69.00
46448;BME280;32145;50.390;30.778;2023-04-26T02:27:11;99021.41;;;9.03;69.26
46448;BME280;32145;50.390;30.778;2023-04-26T02:30:07;99021.72;;;9.07;69.12
46448;BME280;32145;50.390;30.778;2023-04-26T02:33:05;99012.28;;;9.09;69.93
46448;BME280;32145;50.390;30.778;2023-04-26T02:36:02;99020.41;;;9.09;70.61
46448;BME280;32145;50.390;30.778;2023-04-26T02:38:58;99008.53;;;9.10;70.33
46448;BME280;32145;50.390;30.778;2023-04-26T02:41:55;99007.00;;;9.14;70.55
46448;BME280;32145;50.390;30.778;2023-04-26T02:44:51;99007.78;;;9.15;69.88
46448;BME280;32145;50.390;30.778;2023-04-26T02:47:45;99000.03;;;9.19;70.63
46448;BME280;32145;50.390;30.778;2023-04-26T02:50:41;99006.47;;;9.18;71.41
46448;BME280;32145;50.390;30.778;2023-04-26T02:53:36;99011.81;;;9.12;72.15
46448;BME280;32145;50.390;30.778;2023-04-26T02:56:30;99019.34;;;9.10;72.51
46448;BME280;32145;50.390;30.778;2023-04-26T02:59:24;99005.31;;;9.13;72.46
46448;BME280;32145;50.390;30.778;2023-04-26T03:02:19;99005.66;;;9.17;72.67
46448;BME280;32145;50.390;30.778;2023-04-26T03:05:15;99008.44;;;9.22;72.46
46448;BME280;32145;50.390;30.778;2023-04-26T03:08:13;99010.44;;;9.27;72.88
46448;BME280;32145;50.390;30.778;2023-04-26T03:11:07;99004.25;;;9.32;72.94
46448;BME280;32145;50.390;30.778;2023-04-26T03:14:02;99009.75;;;9.37;73.00
46448;BME280;32145;50.390;30.778;2023-04-26T03:16:56;99004.66;;;9.40;73.07
46448;BME280;32145;50.390;30.778;2023-04-26T03:19:50;99005.75;;;9.39;73.41
46448;BME280;32145;50.390;30.778;2023-04-26T03:22:45;99012.22;;;9.38;73.48
46448;BME280;32145;50.390;30.778;2023-04-26T03:25:40;99015.00;;;9.44;73.64
46448;BME280;32145;50.390;30.778;2023-04-26T03:28:35;99009.91;;;9.47;73.50
46448;BME280;32145;50.390;30.778;2023-04-26T03:31:29;99009.41;;;9.50;73.64
46448;BME280;32145;50.390;30.778;2023-04-26T03:34:23;99019.50;;;9.55;73.47
46448;BME280;32145;50.390;30.778;2023-04-26T03:37:18;99008.75;;;9.60;73.54
46448;BME280;32145;50.390;30.778;2023-04-26T03:40:12;99009.06;;;9.64;73.23
46448;BME280;32145;50.390;30.778;2023-04-26T03:43:07;99014.56;;;9.69;73.49
46448;BME280;32145;50.390;30.778;2023-04-26T03:46:02;99012.16;;;9.73;73.03
46448;BME280;32145;50.390;30.778;2023-04-26T03:48:56;99010.84;;;9.75;72.85
46448;BME280;32145;50.390;30.778;2023-04-26T03:51:50;99012.75;;;9.75;72.81
46448;BME280;32145;50.390;30.778;2023-04-26T03:54:44;99007.88;;;9.77;71.77
46448;BME280;32145;50.390;30.778;2023-04-26T03:57:39;99001.44;;;9.78;72.45
46448;BME280;32145;50.390;30.778;2023-04-26T04:00:36;99004.75;;;9.85;73.19
46448;BME280;32145;50.390;30.778;2023-04-26T04:03:30;99006.16;;;9.88;72.34
46448;BME280;32145;50.390;30.778;2023-04-26T04:06:24;99008.34;;;9.91;72.18
46448;BME280;32145;50.390;30.778;2023-04-26T04:09:18;99007.59;;;9.96;72.70
46448;BME280;32145;50.390;30.778;2023-04-26T04:12:15;98998.97;;;9.99;71.59
46448;BME280;32145;50.390;30.778;2023-04-26T04:15:11;99004.41;;;9.99;71.70
46448;BME280;32145;50.390;30.778;2023-04-26T04:18:09;99013.66;;;10.03;72.57
46448;BME280;32145;50.390;30.778;2023-04-26T04:21:05;98999.63;;;10.06;72.36
46448;BME280;32145;50.390;30.778;2023-04-26T04:24:02;99009.69;;;10.11;72.14
46448;BME280;32145;50.390;30.778;2023-04-26T04:26:58;99005.63;;;10.13;72.54
46448;BME280;32145;50.390;30.778;2023-04-26T04:29:54;99002.19;;;10.18;72.66
46448;BME280;32145;50.390;30.778;2023-04-26T04:32:51;99009.56;;;10.23;72.18
46448;BME280;32145;50.390;30.778;2023-04-26T04:35:48;99004.44;;;10.26;72.22
46448;BME280;32145;50.390;30.778;2023-04-26T04:38:45;98997.94;;;10.27;71.53
46448;BME280;32145;50.390;30.778;2023-04-26T04:41:41;98991.22;;;10.30;71.02
46448;BME280;32145;50.390;30.778;2023-04-26T04:44:37;98995.06;;;10.34;71.37
46448;BME280;32145;50.390;30.778;2023-04-26T04:47:34;98997.56;;;10.41;71.31
46448;BME280;32145;50.390;30.778;2023-04-26T04:50:30;99002.75;;;10.42;70.73
46448;BME280;32145;50.390;30.778;2023-04-26T04:53:28;99007.75;;;10.51;71.28
46448;BME280;32145;50.390;30.778;2023-04-26T04:56:24;99001.28;;;10.57;71.23
46448;BME280;32145;50.390;30.778;2023-04-26T04:59:20;99002.41;;;10.61;71.30
46448;BME280;32145;50.390;30.778;2023-04-26T05:02:15;98997.56;;;10.63;70.99
46448;BME280;32145;50.390;30.778;2023-04-26T05:05:09;98998.69;;;10.67;70.55
46448;BME280;32145;50.390;30.778;2023-04-26T05:08:03;99006.88;;;10.73;70.37
46448;BME280;32145;50.390;30.778;2023-04-26T05:10:59;99012.34;;;10.78;70.52
46448;BME280;32145;50.390;30.778;2023-04-26T05:13:53;99011.06;;;10.86;70.53
46448;BME280;32145;50.390;30.778;2023-04-26T05:16:47;99018.44;;;10.90;70.56
46448;BME280;32145;50.390;30.778;2023-04-26T05:19:42;99017.34;;;10.91;69.54
46448;BME280;32145;50.390;30.778;2023-04-26T05:22:38;99013.63;;;10.98;70.39
46448;BME280;32145;50.390;30.778;2023-04-26T05:25:36;99015.03;;;11.05;69.73
46448;BME280;32145;50.390;30.778;2023-04-26T05:28:33;99015.13;;;11.16;69.29
46448;BME280;32145;50.390;30.778;2023-04-26T05:31:30;99031.41;;;11.16;69.93
46448;BME280;32145;50.390;30.778;2023-04-26T05:34:26;99033.28;;;11.15;69.68
46448;BME280;32145;50.390;30.778;2023-04-26T05:37:22;99035.53;;;11.24;69.87
46448;BME280;32145;50.390;30.778;2023-04-26T05:40:19;99035.03;;;11.27;69.49
46448;BME280;32145;50.390;30.778;2023-04-26T05:43:15;99040.47;;;11.32;69.30
46448;BME280;32145;50.390;30.778;2023-04-26T05:46:13;99032.69;;;11.41;69.03
46448;BME280;32145;50.390;30.778;2023-04-26T05:49:09;99034.56;;;11.40;68.90
46448;BME280;32145;50.390;30.778;2023-04-26T05:52:06;99034.06;;;11.43;68.27
46448;BME280;32145;50.390;30.778;2023-04-26T05:55:02;99034.09;;;11.48;68.43
46448;BME280;32145;50.390;30.778;2023-04-26T05:57:58;99033.34;;;11.58;68.11
46448;BME280;32145;50.390;30.778;2023-04-26T06:00:55;99035.34;;;11.73;67.74
46448;BME280;32145;50.390;30.778;2023-04-26T06:03:50;99032.72;;;11.89;67.75
46448;BME280;32145;50.390;30.778;2023-04-26T06:06:45;99029.50;;;11.97;66.79
46448;BME280;32145;50.390;30.778;2023-04-26T06:09:39;99029.03;;;12.06;66.68
46448;BME280;32145;50.390;30.778;2023-04-26T06:12:33;99029.06;;;12.11;66.29
46448;BME280;32145;50.390;30.778;2023-04-26T06:15:28;99015.47;;;12.16;65.89
46448;BME280;32145;50.390;30.778;2023-04-26T06:18:22;99018.78;;;12.18;65.99
46448;BME280;32145;50.390;30.778;2023-04-26T06:21:18;99010.63;;;12.23;65.08
46448;BME280;32145;50.390;30.778;2023-04-26T06:24:12;99017.16;;;12.28;64.99
46448;BME280;32145;50.390;30.778;2023-04-26T06:27:08;99012.81;;;12.32;64.92
46448;BME280;32145;50.390;30.778;2023-04-26T06:30:06;99015.53;;;12.32;64.44
46448;BME280;32145;50.390;30.778;2023-04-26T06:33:00;99008.47;;;12.31;64.15
46448;BME280;32145;50.390;30.778;2023-04-26T06:35:55;99017.72;;;12.30;64.41
46448;BME280;32145;50.390;30.778;2023-04-26T06:38:50;99023.69;;;12.32;64.32
46448;BME280;32145;50.390;30.778;2023-04-26T06:41:45;99024.25;;;12.29;63.86
46448;BME280;32145;50.390;30.778;2023-04-26T06:44:39;99027.81;;;12.34;64.21
46448;BME280;32145;50.390;30.778;2023-04-26T06:47:34;99032.47;;;12.44;64.27
46448;BME280;32145;50.390;30.778;2023-04-26T06:50:28;99027.03;;;12.60;63.86
46448;BME280;32145;50.390;30.778;2023-04-26T06:53:22;99019.47;;;12.78;63.88
46448;BME280;32145;50.390;30.778;2023-04-26T06:56:20;99025.22;;;12.97;63.66
46448;BME280;32145;50.390;30.778;2023-04-26T06:59:16;99034.78;;;13.36;63.09
46448;BME280;32145;50.390;30.778;2023-04-26T07:02:13;99035.03;;;13.39;61.91
46448;BME280;32145;50.390;30.778;2023-04-26T07:05:09;99033.13;;;13.35;61.89
46448;BME280;32145;50.390;30.778;2023-04-26T07:08:05;99037.19;;;13.48;61.79
46448;BME280;32145;50.390;30.778;2023-04-26T07:11:00;99032.03;;;13.51;61.17
46448;BME280;32145;50.390;30.778;2023-04-26T07:13:56;99033.94;;;13.61;60.96
46448;BME280;32145;50.390;30.778;2023-04-26T07:16:50;99028.22;;;13.73;60.57
46448;BME280;32145;50.390;30.778;2023-04-26T07:19:44;99027.13;;;13.79;60.52
46448;BME280;32145;50.390;30.778;2023-04-26T07:22:38;99028.19;;;13.89;60.20
46448;BME280;32145;50.390;30.778;2023-04-26T07:25:33;99024.88;;;14.08;60.18
46448;BME280;32145;50.390;30.778;2023-04-26T07:28:27;99013.91;;;14.23;59.80
46448;BME280;32145;50.390;30.778;2023-04-26T07:31:23;99026.44;;;14.24;59.19
46448;BME280;32145;50.390;30.778;2023-04-26T07:34:17;99025.94;;;14.07;58.90
46448;BME280;32145;50.390;30.778;2023-04-26T07:37:11;99027.59;;;13.97;59.09
46448;BME280;32145;50.390;30.778;2023-04-26T07:40:07;99027.34;;;13.94;59.42
46448;BME280;32145;50.390;30.778;2023-04-26T07:43:02;99034.72;;;13.88;59.24
46448;BME280;32145;50.390;30.778;2023-04-26T07:45:58;99034.44;;;13.95;59.17
46448;BME280;32145;50.390;30.778;2023-04-26T07:48:53;99041.19;;;14.13;58.96
46448;BME280;32145;50.390;30.778;2023-04-26T07:51:48;99034.28;;;14.41;58.71
46448;BME280;32145;50.390;30.778;2023-04-26T07:54:44;99044.72;;;14.74;58.26
46448;BME280;32145;50.390;30.778;2023-04-26T07:57:38;99048.94;;;15.01;57.85
46448;BME280;32145;50.390;30.778;2023-04-26T08:00:32;99059.81;;;15.12;57.60
46448;BME280;32145;50.390;30.778;2023-04-26T08:03:26;99059.72;;;15.22;56.84
46448;BME280;32145;50.390;30.778;2023-04-26T08:06:22;99063.09;;;15.08;56.98
46448;BME280;32145;50.390;30.778;2023-04-26T08:09:17;99057.72;;;14.93;57.55
46448;BME280;32145;50.390;30.778;2023-04-26T08:12:11;99051.31;;;14.68;57.46
46448;BME280;32145;50.390;30.778;2023-04-26T08:15:06;99057.28;;;14.75;57.79
46448;BME280;32145;50.390;30.778;2023-04-26T08:18:00;99060.28;;;14.79;57.82
46448;BME280;32145;50.390;30.778;2023-04-26T08:20:54;99057.78;;;14.82;57.84
46448;BME280;32145;50.390;30.778;2023-04-26T08:23:52;99054.72;;;14.94;57.83
46448;BME280;32145;50.390;30.778;2023-04-26T08:26:48;99056.03;;;15.02;57.71
46448;BME280;32145;50.390;30.778;2023-04-26T08:29:45;99056.38;;;15.30;57.33
46448;BME280;32145;50.390;30.778;2023-04-26T08:32:42;99050.69;;;15.56;57.27
46448;BME280;32145;50.390;30.778;2023-04-26T08:35:38;99047.28;;;15.70;56.80
46448;BME280;32145;50.390;30.778;2023-04-26T08:38:34;99046.88;;;16.12;56.33
46448;BME280;32145;50.390;30.778;2023-04-26T08:41:36;99047.31;;;16.43;55.43
46448;BME280;32145;50.390;30.778;2023-04-26T08:44:34;99047.28;;;16.48;54.21
46448;BME280;32145;50.390;30.778;2023-04-26T08:47:37;99044.38;;;16.40;54.63
46448;BME280;32145;50.390;30.778;2023-04-26T08:50:35;99041.91;;;16.19;55.18
46448;BME280;32145;50.390;30.778;2023-04-26T08:53:33;99042.94;;;15.98;55.60
46448;BME280;32145;50.390;30.778;2023-04-26T08:56:30;99050.34;;;15.98;55.89
46448;BME280;32145;50.390;30.778;2023-04-26T08:59:29;99041.34;;;16.17;55.82
46448;BME280;32145;50.390;30.778;2023-04-26T09:02:24;99031.84;;;16.33;55.79
46448;BME280;32145;50.390;30.778;2023-04-26T09:05:18;99030.41;;;16.60;55.31
46448;BME280;32145;50.390;30.778;2023-04-26T09:08:15;99029.69;;;16.74;54.58
46448;BME280;32145;50.390;30.778;2023-04-26T09:11:10;99040.84;;;16.58;54.19
46448;BME280;32145;50.390;30.778;2023-04-26T09:14:04;99040.06;;;16.33;55.01
46448;BME280;32145;50.390;30.778;2023-04-26T09:17:00;99048.81;;;16.35;55.46
46448;BME280;32145;50.390;30.778;2023-04-26T09:19:54;99042.78;;;16.33;55.85
46448;BME280;32145;50.390;30.778;2023-04-26T09:22:51;99038.50;;;16.27;55.94
46448;BME280;32145;50.390;30.778;2023-04-26T09:25:48;99048.03;;;16.05;55.98
46448;BME280;32145;50.390;30.778;2023-04-26T09:28:45;99049.16;;;15.75;57.26
46448;BME280;32145;50.390;30.778;2023-04-26T09:31:43;99054.47;;;15.61;57.65
46448;BME280;32145;50.390;30.778;2023-04-26T09:34:44;99058.66;;;15.53;58.70
46448;BME280;32145;50.390;30.778;2023-04-26T09:37:50;99059.50;;;15.48;58.88
46448;BME280;32145;50.390;30.778;2023-04-26T09:40:48;99065.06;;;15.38;59.42
46448;BME280;32145;50.390;30.778;2023-04-26T09:43:43;99066.22;;;15.26;60.13
46448;BME280;32145;50.390;30.778;2023-04-26T09:46:37;99067.38;;;15.20;60.45
46448;BME280;32145;50.390;30.778;2023-04-26T09:49:42;99068.50;;;15.14;60.60
46448;BME280;32145;50.390;30.778;2023-04-26T09:52:44;99067.66;;;15.18;60.69
46448;BME280;32145;50.390;30.778;2023-04-26T09:55:38;99078.81;;;15.27;60.86
46448;BME280;32145;50.390;30.778;2023-04-26T09:58:32;99079.75;;;15.42;60.17
46448;BME280;32145;50.390;30.778;2023-04-26T10:01:27;99084.44;;;15.41;59.98
46448;BME280;32145;50.390;30.778;2023-04-26T10:04:22;99081.72;;;15.36;60.47
46448;BME280;32145;50.390;30.778;2023-04-26T10:07:18;99083.09;;;15.33;61.21
46448;BME280;32145;50.390;30.778;2023-04-26T10:10:14;99088.16;;;15.51;60.19
46448;BME280;32145;50.390;30.778;2023-04-26T10:13:10;99084.75;;;15.69;59.78
46448;BME280;32145;50.390;30.778;2023-04-26T10:16:04;99074.50;;;15.80;59.56
46448;BME280;32145;50.390;30.778;2023-04-26T10:18:59;99076.13;;;15.81;59.40
46448;BME280;32145;50.390;30.778;2023-04-26T10:21:57;99075.44;;;16.00;58.98
46448;BME280;32145;50.390;30.778;2023-04-26T10:24:54;99079.59;;;16.22;58.35
46448;BME280;32145;50.390;30.778;2023-04-26T10:27:50;99074.06;;;16.27;57.94
46448;BME280;32145;50.390;30.778;2023-04-26T10:30:55;99084.47;;;16.25;57.73
46448;BME280;32145;50.390;30.778;2023-04-26T10:34:19;99080.56;;;16.07;58.46
46448;BME280;32145;50.390;30.778;2023-04-26T10:37:15;99072.13;;;16.03;58.74
46448;BME280;32145;50.390;30.778;2023-04-26T10:40:22;99074.53;;;16.10;58.74
46448;BME280;32145;50.390;30.778;2023-04-26T10:43:28;99071.69;;;16.20;58.50
46448;BME280;32145;50.390;30.778;2023-04-26T10:46:33;99070.75;;;16.30;58.98
46448;BME280;32145;50.390;30.778;2023-04-26T10:49:28;99066.25;;;16.40;58.39
46448;BME280;32145;50.390;30.778;2023-04-26T10:52:37;99069.34;;;16.33;57.95
46448;BME280;32145;50.390;30.778;2023-04-26T10:55:39;99073.53;;;16.25;58.20
46448;BME280;32145;50.390;30.778;2023-04-26T10:58:35;99085.16;;;16.12;58.37
46448;BME280;32145;50.390;30.778;2023-04-26T11:01:33;99080.19;;;15.89;59.46
46448;BME280;32145;50.390;30.778;2023-04-26T11:04:49;99076.75;;;15.78;60.34
46448;BME280;32145;50.390;30.778;2023-04-26T11:07:44;99076.75;;;15.73;59.86
46448;BME280;32145;50.390;30.778;2023-04-26T11:10:38;99081.44;;;15.72;60.42
46448;BME280;32145;50.390;30.778;2023-04-26T11:13:35;99084.25;;;15.62;59.87
46448;BME280;32145;50.390;30.778;2023-04-26T11:16:30;99072.75;;;15.65;59.93
46448;BME280;32145;50.390;30.778;2023-04-26T11:19:26;99078.09;;;15.76;59.89
46448;BME280;32145;50.390;30.778;2023-04-26T11:22:21;99076.56;;;15.94;59.53
46448;BME280;32145;50.390;30.778;2023-04-26T11:25:15;99080.34;;;16.03;59.06
46448;BME280;32145;50.390;30.778;2023-04-26T11:28:10;99081.28;;;15.88;59.03
46448;BME280;32145;50.390;30.778;2023-04-26T11:31:06;99076.19;;;15.76;59.64
46448;BME280;32145;50.390;30.778;2023-04-26T11:34:03;99075.19;;;15.67;59.72
46448;BME280;32145;50.390;30.778;2023-04-26T11:36:57;99073.31;;;15.62;59.56
46448;BME280;32145;50.390;30.778;2023-04-26T11:39:51;99080.22;;;15.54;60.05
46448;BME280;32145;50.390;30.778;2023-04-26T11:42:46;99071.38;;;15.33;61.16
46448;BME280;32145;50.390;30.778;2023-04-26T11:45:40;99077.25;;;15.16;61.45
46448;BME280;32145;50.390;30.778;2023-04-26T11:48:37;99070.22;;;15.04;61.86
46448;BME280;32145;50.390;30.778;2023-04-26T11:51:32;99066.16;;;15.02;62.19
46448;BME280;32145;50.390;30.778;2023-04-26T11:54:26;99058.28;;;14.90;62.62
46448;BME280;32145;50.390;30.778;2023-04-26T11:57:21;99061.03;;;14.90;62.95
46448;BME280;32145;50.390;30.778;2023-04-26T12:00:16;99061.47;;;15.02;62.63
46448;BME280;32145;50.390;30.778;2023-04-26T12:03:10;99062.81;;;15.10;62.28
46448;BME280;32145;50.390;30.778;2023-04-26T12:06:06;99061.47;;;15.07;62.56
46448;BME280;32145;50.390;30.778;2023-04-26T12:09:01;99056.84;;;15.03;62.27
46448;BME280;32145;50.390;30.778;2023-04-26T12:11:56;99056.84;;;15.03;62.79
46448;BME280;32145;50.390;30.778;2023-04-26T12:14:51;99046.75;;;15.03;63.17
46448;BME280;32145;50.390;30.778;2023-04-26T12:17:53;99056.56;;;15.04;63.89
46448;BME280;32145;50.390;30.778;2023-04-26T12:20:48;99050.09;;;14.95;63.75
46448;BME280;32145;50.390;30.778;2023-04-26T12:23:45;99056.72;;;14.84;64.67
46448;BME280;32145;50.390;30.778;2023-04-26T12:26:42;99046.91;;;14.72;65.27
46448;BME280;32145;50.390;30.778;2023-04-26T12:29:38;99056.56;;;14.54;65.97
46448;BME280;32145;50.390;30.778;2023-04-26T12:32:35;99052.78;;;14.50;66.25
46448;BME280;32145;50.390;30.778;2023-04-26T12:35:32;99054.66;;;14.49;66.17
46448;BME280;32145;50.390;30.778;2023-04-26T12:38:28;99058.50;;;14.48;66.73
46448;BME280;32145;50.390;30.778;2023-04-26T12:41:26;99071.34;;;14.42;67.67
46448;BME280;32145;50.390;30.778;2023-04-26T12:44:22;99060.69;;;14.46;68.15
46448;BME280;32145;50.390;30.778;2023-04-26T12:47:19;99063.44;;;14.41;69.30
46448;BME280;32145;50.390;30.778;2023-04-26T12:50:16;99066.72;;;14.43;69.31
46448;BME280;32145;50.390;30.778;2023-04-26T12:53:12;99064.25;;;14.41;69.83
46448;BME280;32145;50.390;30.778;2023-04-26T12:56:08;99078.19;;;14.29;70.11
46448;BME280;32145;50.390;30.778;2023-04-26T12:59:06;99100.56;;;14.26;70.62
46448;BME280;32145;50.390;30.778;2023-04-26T13:02:02;99100.34;;;14.07;71.83
46448;BME280;32145;50.390;30.778;2023-04-26T13:04:59;99101.75;;;13.84;73.87
46448;BME280;32145;50.390;30.778;2023-04-26T13:07:55;99090.03;;;13.78;74.03
46448;BME280;32145;50.390;30.778;2023-04-26T13:10:52;99102.00;;;13.77;74.16
46448;BME280;32145;50.390;30.778;2023-04-26T13:13:48;99097.94;;;13.79;74.46
46448;BME280;32145;50.390;30.778;2023-04-26T13:16:45;99106.13;;;13.79;75.07
46448;BME280;32145;50.390;30.778;2023-04-26T13:19:42;99103.91;;;13.82;75.21
46448;BME280;32145;50.390;30.778;2023-04-26T13:22:38;99100.91;;;13.88;75.32
46448;BME280;32145;50.390;30.778;2023-04-26T13:25:34;99104.97;;;14.01;74.92
46448;BME280;32145;50.390;30.778;2023-04-26T13:28:31;99102.25;;;14.07;74.89
46448;BME280;32145;50.390;30.778;2023-04-26T13:31:25;99098.13;;;14.09;74.63
46448;BME280;32145;50.390;30.778;2023-04-26T13:34:21;99102.25;;;14.01;74.99
46448;BME280;32145;50.390;30.778;2023-04-26T13:37:15;99102.28;;;13.96;74.43
46448;BME280;32145;50.390;30.778;2023-04-26T13:40:10;99095.47;;;13.88;74.63
46448;BME280;32145;50.390;30.778;2023-04-26T13:43:04;99095.72;;;13.87;74.80
46448;BME280;32145;50.390;30.778;2023-04-26T13:45:59;99093.00;;;13.87;75.35
46448;BME280;32145;50.390;30.778;2023-04-26T13:48:53;99094.09;;;13.91;76.09
46448;BME280;32145;50.390;30.778;2023-04-26T13:51:49;99088.88;;;14.15;76.01
46448;BME280;32145;50.390;30.778;2023-04-26T13:54:43;99093.19;;;14.32;75.73
46448;BME280;32145;50.390;30.778;2023-04-26T13:57:37;99086.28;;;14.50;75.28
46448;BME280;32145;50.390;30.778;2023-04-26T14:00:32;99098.31;;;14.49;75.11
46448;BME280;32145;50.390;30.778;2023-04-26T14:03:28;99091.78;;;14.45;74.91
46448;BME280;32145;50.390;30.778;2023-04-26T14:06:24;99095.09;;;14.32;75.12
46448;BME280;32145;50.390;30.778;2023-04-26T14:09:22;99098.41;;;14.23;75.03
46448;BME280;32145;50.390;30.778;2023-04-26T14:12:18;99100.63;;;14.05;75.40
46448;BME280;32145;50.390;30.778;2023-04-26T14:15:15;99102.81;;;13.93;75.89
46448;BME280;32145;50.390;30.778;2023-04-26T14:18:11;99101.19;;;13.71;76.48
46448;BME280;32145;50.390;30.778;2023-04-26T14:21:05;99105.59;;;13.57;76.79
46448;BME280;32145;50.390;30.778;2023-04-26T14:23:59;99106.06;;;13.43;77.27
46448;BME280;32145;50.390;30.778;2023-04-26T14:26:59;99108.28;;;13.41;77.94
46448;BME280;32145;50.390;30.778;2023-04-26T14:29:55;99103.34;;;13.27;78.39
46448;BME280;32145;50.390;30.778;2023-04-26T14:32:52;99105.00;;;13.28;78.46
46448;BME280;32145;50.390;30.778;2023-04-26T14:35:48;99116.38;;;13.15;78.84
46448;BME280;32145;50.390;30.778;2023-04-26T14:38:45;99114.75;;;13.14;79.00
46448;BME280;32145;50.390;30.778;2023-04-26T14:41:41;99110.41;;;13.18;78.78
46448;BME280;32145;50.390;30.778;2023-04-26T14:44:36;99113.13;;;13.18;78.54
46448;BME280;32145;50.390;30.778;2023-04-26T14:47:31;99113.94;;;13.13;78.46
46448;BME280;32145;50.390;30.778;2023-04-26T14:50:25;99120.72;;;13.11;78.22
46448;BME280;32145;50.390;30.778;2023-04-26T14:53:21;99112.56;;;13.06;78.45
46448;BME280;32145;50.390;30.778;2023-04-26T14:56:16;99115.81;;;13.08;78.67
46448;BME280;32145;50.390;30.778;2023-04-26T14:59:10;99107.66;;;13.08;78.73
46448;BME280;32145;50.390;30.778;2023-04-26T15:02:06;99111.78;;;13.10;78.80
46448;BME280;32145;50.390;30.778;2023-04-26T15:05:00;99104.41;;;13.11;79.13
46448;BME280;32145;50.390;30.778;2023-04-26T15:07:56;99106.31;;;13.05;79.20
46448;BME280;32145;50.390;30.778;2023-04-26T15:10:51;99111.22;;;13.08;79.00
46448;BME280;32145;50.390;30.778;2023-04-26T15:13:47;99101.16;;;13.09;78.90
46448;BME280;32145;50.390;30.778;2023-04-26T15:16:41;99102.25;;;13.13;79.06
46448;BME280;32145;50.390;30.778;2023-04-26T15:19:36;99106.06;;;13.12;79.09
46448;BME280;32145;50.390;30.778;2023-04-26T15:22:31;99103.03;;;13.13;79.01